Weather at California Redwood Coast-Humboldt County Airport

Public forecast

Using degrees Fahrenheit for public forecast. Weather courtesy of forecast.io.

Current aviation weather report (METAR) for California Redwood Coast-Humboldt County Airport

Retrieved 2020/12/01 17:24 UTC (0 seconds ago):

KACV 011724Z AUTO 00000KT 1SM R32/1600V4500FT BR OVC002 06/06 A3028 RMK AO2 VIS 1/2V3 T00560056

Aviation forecast (TAF) for California Redwood Coast-Humboldt County Airport

Retrieved 2020/12/01 12:28 UTC (5 hours ago):

TAF KACV 011126Z 0112/0212 05004KT 4SM BR VCFG FEW001 FM011800 30006KT P6SM SKC FM020100 VRB03KT P6SM SKC